createdAt,value
2023-04-09T00:01:04.559Z,5.18
2023-04-09T00:06:07.140Z,5.11
2023-04-09T00:11:09.308Z,5.02
2023-04-09T00:16:11.491Z,4.99
2023-04-09T00:21:13.721Z,5.08
2023-04-09T00:26:15.922Z,5.03
2023-04-09T00:31:19.439Z,5.02
2023-04-09T00:36:24.636Z,5.06
2023-04-09T00:41:28.238Z,5.17
2023-04-09T00:46:31.797Z,5.15
2023-04-09T00:51:34.122Z,5.26
2023-04-09T00:56:37.250Z,5.36
2023-04-09T01:01:39.351Z,5.33
2023-04-09T01:07:08.570Z,5.42
2023-04-09T01:12:22.047Z,5.41
2023-04-09T01:17:35.999Z,5.35
2023-04-09T01:22:56.986Z,5.27
2023-04-09T01:28:19.366Z,5.34
2023-04-09T01:33:22.781Z,5.31
2023-04-09T01:38:26.530Z,5.39
2023-04-09T01:43:30.533Z,5.39
2023-04-09T01:48:34.163Z,5.34
2023-04-09T01:53:36.503Z,5.35
2023-04-09T01:58:38.667Z,5.33
2023-04-09T02:03:56.665Z,5.03
2023-04-09T02:09:00.947Z,4.91
2023-04-09T02:14:04.031Z,4.73
2023-04-09T02:19:06.291Z,4.56
2023-04-09T02:24:08.607Z,4.46
2023-04-09T02:29:10.725Z,4.40
2023-04-09T02:34:12.861Z,4.40
2023-04-09T02:39:15.054Z,4.42
2023-04-09T02:44:17.199Z,4.44
2023-04-09T02:49:19.471Z,4.55
2023-04-09T02:54:21.652Z,4.59
2023-04-09T02:59:23.909Z,4.71
2023-04-09T03:04:26.356Z,4.89
2023-04-09T03:09:29.403Z,5.04
2023-04-09T03:14:31.664Z,5.09
2023-04-09T03:19:34.395Z,5.12
2023-04-09T03:24:36.651Z,5.09
2023-04-09T03:29:38.853Z,5.13
2023-04-09T03:34:41.028Z,5.23
2023-04-09T03:39:43.250Z,5.24
2023-04-09T03:44:45.442Z,5.30
2023-04-09T03:49:47.645Z,5.34
2023-04-09T03:54:49.804Z,5.31
2023-04-09T03:59:51.989Z,5.23
2023-04-09T04:04:54.282Z,5.22
2023-04-09T04:09:56.426Z,5.27
2023-04-09T04:14:58.770Z,5.27
2023-04-09T04:20:01.260Z,5.34
2023-04-09T04:25:06.883Z,5.38
2023-04-09T04:30:09.506Z,5.45
2023-04-09T04:35:11.769Z,5.48
2023-04-09T04:40:13.912Z,5.48
2023-04-09T04:45:16.051Z,5.48
2023-04-09T04:50:18.254Z,5.44
2023-04-09T04:55:20.446Z,5.50
2023-04-09T05:00:22.742Z,5.48
2023-04-09T05:05:25.096Z,5.53
2023-04-09T05:10:27.350Z,5.65
2023-04-09T05:15:29.487Z,5.60
2023-04-09T05:20:31.618Z,5.62
2023-04-09T05:25:33.738Z,5.87
2023-04-09T05:30:35.868Z,6.00
2023-04-09T05:35:41.016Z,6.13
2023-04-09T05:40:45.111Z,6.31
2023-04-09T05:45:47.499Z,6.39
2023-04-09T05:50:55.162Z,6.50
2023-04-09T05:55:58.134Z,6.60
2023-04-09T06:01:00.425Z,6.66
2023-04-09T06:06:03.231Z,6.77
2023-04-09T06:11:09.820Z,6.75
2023-04-09T06:16:11.972Z,6.86
2023-04-09T06:21:14.313Z,7.02
2023-04-09T06:26:16.435Z,7.01
2023-04-09T06:31:18.646Z,7.06
2023-04-09T06:36:21.386Z,7.02
2023-04-09T06:41:23.906Z,7.22
2023-04-09T06:46:26.366Z,7.19
2023-04-09T06:51:28.609Z,7.63
2023-04-09T06:56:30.788Z,7.72
2023-04-09T07:01:35.661Z,7.87
2023-04-09T07:06:38.080Z,7.87
2023-04-09T07:11:40.414Z,7.95
2023-04-09T07:16:43.071Z,8.25
2023-04-09T07:21:45.260Z,8.49
2023-04-09T07:26:49.941Z,8.75
2023-04-09T07:31:53.470Z,9.01
2023-04-09T07:36:55.765Z,8.75
2023-04-09T07:41:57.926Z,9.28
2023-04-09T07:47:00.859Z,9.59
2023-04-09T07:52:03.863Z,10.09
2023-04-09T07:57:06.930Z,10.36
2023-04-09T08:02:09.331Z,10.79
2023-04-09T08:07:12.267Z,11.38
2023-04-09T08:12:14.572Z,11.39
2023-04-09T08:17:16.750Z,12.08
2023-04-09T08:22:18.975Z,11.60
2023-04-09T08:27:22.144Z,11.75
2023-04-09T08:32:24.370Z,12.10
2023-04-09T08:37:26.887Z,12.24
2023-04-09T08:42:30.061Z,12.49
2023-04-09T08:47:33.474Z,12.97
2023-04-09T08:52:36.987Z,12.68
2023-04-09T08:57:40.026Z,12.93
2023-04-09T09:03:10.158Z,13.92
2023-04-09T09:08:25.008Z,14.67
2023-04-09T09:13:28.175Z,13.82
2023-04-09T09:18:44.560Z,13.12
2023-04-09T09:23:48.509Z,13.07
2023-04-09T09:28:52.087Z,13.49
2023-04-09T09:33:54.894Z,13.84
2023-04-09T09:38:58.497Z,13.65
2023-04-09T09:44:00.809Z,13.38
2023-04-09T09:49:03.174Z,12.88
2023-04-09T09:54:09.243Z,12.54
2023-04-09T09:59:22.319Z,12.18
2023-04-09T10:04:28.582Z,11.93
2023-04-09T10:09:31.417Z,11.47
2023-04-09T10:14:35.955Z,11.39
2023-04-09T10:19:43.185Z,11.46
2023-04-09T10:24:47.191Z,11.17
2023-04-09T10:29:52.006Z,11.17
2023-04-09T10:34:59.482Z,11.52
2023-04-09T10:40:03.899Z,11.94
2023-04-09T10:45:10.595Z,12.15
2023-04-09T10:50:24.489Z,12.57
2023-04-09T10:55:41.757Z,13.08
2023-04-09T11:00:46.640Z,13.39
2023-04-09T11:05:52.794Z,13.35
2023-04-09T11:10:58.430Z,12.65
2023-04-09T11:16:03.470Z,12.71
2023-04-09T11:21:06.374Z,12.12
2023-04-09T11:26:09.816Z,11.35
2023-04-09T11:31:12.017Z,11.47
2023-04-09T11:36:14.259Z,12.06
2023-04-09T11:41:16.610Z,12.50
2023-04-09T11:46:18.869Z,13.30
2023-04-09T11:51:21.185Z,13.46
2023-04-09T11:56:23.349Z,14.36
2023-04-09T12:01:31.621Z,14.45
2023-04-09T12:06:40.222Z,14.74
2023-04-09T12:11:46.489Z,14.32
2023-04-09T12:16:52.535Z,15.52
2023-04-09T12:21:56.495Z,16.61
2023-04-09T12:26:58.802Z,16.72
2023-04-09T12:32:01.064Z,18.19
2023-04-09T12:37:03.275Z,18.82
2023-04-09T12:42:05.599Z,19.87
2023-04-09T12:47:08.105Z,24.78
2023-04-09T12:52:10.300Z,23.45
2023-04-09T12:57:12.473Z,19.32
2023-04-09T13:02:14.751Z,23.13
2023-04-09T13:07:19.105Z,24.03
2023-04-09T13:12:21.896Z,21.97
2023-04-09T13:17:24.202Z,25.13
2023-04-09T13:22:26.429Z,21.65
2023-04-09T13:27:28.614Z,18.86
2023-04-09T13:32:31.071Z,16.71
2023-04-09T13:37:33.394Z,15.54
2023-04-09T13:42:37.480Z,14.68
2023-04-09T13:47:39.700Z,15.06
2023-04-09T13:52:41.914Z,15.47
2023-04-09T13:57:44.142Z,16.52
2023-04-09T14:02:46.674Z,21.29
2023-04-09T14:07:48.910Z,18.10
2023-04-09T14:12:51.533Z,18.30
2023-04-09T14:17:53.813Z,24.93
2023-04-09T14:22:56.223Z,24.27
2023-04-09T14:27:59.116Z,25.99
2023-04-09T14:33:01.826Z,23.44
2023-04-09T14:38:07.764Z,21.60
2023-04-09T14:43:10.422Z,22.55
2023-04-09T14:48:12.631Z,24.62
2023-04-09T14:53:14.844Z,25.17
2023-04-09T14:58:17.013Z,20.83
2023-04-09T15:03:19.611Z,17.66
2023-04-09T15:08:23.798Z,17.33
2023-04-09T15:13:26.080Z,15.32
2023-04-09T15:18:28.643Z,14.32
2023-04-09T15:23:31.162Z,13.44
2023-04-09T15:28:33.350Z,12.98
2023-04-09T15:33:35.540Z,12.48
2023-04-09T15:38:39.068Z,12.24
2023-04-09T15:43:41.283Z,12.12
2023-04-09T15:48:44.014Z,11.95
2023-04-09T15:53:46.245Z,11.82
2023-04-09T15:58:48.464Z,11.67
2023-04-09T16:03:52.484Z,11.57
2023-04-09T16:08:55.023Z,11.44
2023-04-09T16:13:57.552Z,11.42
2023-04-09T16:19:01.112Z,11.40
2023-04-09T16:24:03.913Z,11.36
2023-04-09T16:29:06.098Z,11.30
2023-04-09T16:34:08.412Z,11.18
2023-04-09T16:39:11.138Z,11.14
2023-04-09T16:44:13.280Z,11.06
2023-04-09T16:49:15.591Z,11.06
2023-04-09T16:54:17.847Z,10.95
2023-04-09T16:59:21.106Z,10.89
2023-04-09T17:04:23.362Z,10.82
2023-04-09T17:09:25.786Z,10.88
2023-04-09T17:14:28.090Z,10.72
2023-04-09T17:19:30.286Z,10.57
2023-04-09T17:24:36.785Z,10.47
2023-04-09T17:29:39.165Z,10.35
2023-04-09T17:34:41.352Z,10.21
2023-04-09T17:39:43.534Z,10.14
2023-04-09T17:44:46.124Z,10.13
2023-04-09T17:49:48.361Z,10.01
2023-04-09T17:54:51.046Z,9.92
2023-04-09T17:59:53.278Z,9.81
2023-04-09T18:04:56.516Z,9.80
2023-04-09T18:09:59.602Z,9.56
2023-04-09T18:15:02.080Z,9.21
2023-04-09T18:20:14.816Z,8.83
2023-04-09T18:25:17.165Z,8.50
2023-04-09T18:30:19.404Z,8.10
2023-04-09T18:35:21.675Z,7.91
2023-04-09T18:40:23.876Z,7.83
2023-04-09T18:45:26.135Z,7.79
2023-04-09T18:50:28.377Z,7.60
2023-04-09T18:55:30.779Z,7.46
2023-04-09T19:00:33.123Z,7.35
2023-04-09T19:05:36.105Z,7.24
2023-04-09T19:10:38.476Z,7.21
2023-04-09T19:15:40.722Z,7.02
2023-04-09T19:20:43.377Z,6.94
2023-04-09T19:25:59.087Z,6.93
2023-04-09T19:31:06.412Z,6.79
2023-04-09T19:36:08.747Z,6.61
2023-04-09T19:41:11.049Z,6.51
2023-04-09T19:46:13.417Z,6.38
2023-04-09T19:51:20.206Z,6.38
2023-04-09T19:56:22.583Z,6.26
2023-04-09T20:01:24.855Z,6.46
2023-04-09T20:06:30.836Z,6.20
2023-04-09T20:11:33.059Z,6.22
2023-04-09T20:16:35.475Z,6.37
2023-04-09T20:21:38.362Z,6.32
2023-04-09T20:26:40.720Z,6.30
2023-04-09T20:31:44.117Z,5.91
2023-04-09T20:36:47.734Z,5.89
2023-04-09T20:41:49.949Z,5.90
2023-04-09T20:46:52.195Z,5.93
2023-04-09T20:51:54.490Z,6.06
2023-04-09T20:56:56.720Z,5.86
2023-04-09T21:01:58.990Z,5.65
2023-04-09T21:07:01.413Z,5.76
2023-04-09T21:12:04.084Z,5.92
2023-04-09T21:17:06.486Z,5.81
2023-04-09T21:22:09.117Z,5.95
2023-04-09T21:27:11.447Z,5.86
2023-04-09T21:32:13.953Z,5.88
2023-04-09T21:37:16.377Z,5.83
2023-04-09T21:42:18.543Z,5.63
2023-04-09T21:47:21.006Z,5.54
2023-04-09T21:52:24.597Z,5.37
2023-04-09T21:57:26.870Z,5.25
2023-04-09T22:02:29.147Z,5.48
2023-04-09T22:07:31.570Z,5.56
2023-04-09T22:12:36.228Z,5.38
2023-04-09T22:17:38.758Z,5.15
2023-04-09T22:22:42.497Z,5.07
2023-04-09T22:27:44.781Z,4.96
2023-04-09T22:32:47.217Z,4.90
2023-04-09T22:37:49.375Z,4.97
2023-04-09T22:42:51.803Z,5.09
2023-04-09T22:47:53.969Z,5.24
2023-04-09T22:52:56.155Z,5.09
2023-04-09T22:57:59.664Z,4.89
2023-04-09T23:03:01.966Z,4.85
2023-04-09T23:08:04.594Z,4.87
2023-04-09T23:13:06.765Z,4.88
2023-04-09T23:18:09.261Z,4.76
2023-04-09T23:23:11.445Z,4.87
2023-04-09T23:28:13.653Z,4.74
2023-04-09T23:33:15.895Z,4.57
2023-04-09T23:38:18.166Z,4.63
2023-04-09T23:43:20.378Z,4.51
2023-04-09T23:48:22.536Z,4.57
2023-04-09T23:53:25.334Z,4.49
2023-04-09T23:58:27.535Z,4.52
